Time;durP1;ratioP1;P1;durP2;ratioP2;P2;SDS_P1;SDS_P2;PMS_P1;PMS_P2;Temp;Humidity;BMP_temperature;BMP_pressure;BME280_temperature;BME280_humidity;BME280_pressure;Samples;Min_cycle;Max_cycle;Signal;HPM_P1;HPM_P2
2022/08/08 00:00:18;;;;;;;2.63;2.42;;;16.90;99.90;;;;;;2073761;28;20048;-71
2022/08/08 00:01:46;;;;;;;2.80;2.60;;;16.90;99.90;;;;;;2074337;28;20026;-71
2022/08/08 00:03:11;;;;;;;2.63;2.35;;;16.80;99.90;;;;;;2037733;29;20562;-71
2022/08/08 00:04:23;;;;;;;3.95;2.50;;;16.80;99.90;;;;;;2087779;28;20125;-71
2022/08/08 00:05:49;;;;;;;2.75;2.55;;;16.80;99.90;;;;;;2086804;28;20025;-71
2022/08/08 00:07:20;;;;;;;3.85;2.88;;;16.80;99.90;;;;;;2076482;28;20071;-71
2022/08/08 00:08:43;;;;;;;3.13;2.72;;;16.80;99.90;;;;;;2076161;28;20432;-71
2022/08/08 00:10:12;;;;;;;4.22;2.40;;;16.70;99.90;;;;;;2073880;28;20030;-71
2022/08/08 00:11:15;;;;;;;3.33;2.58;;;16.70;99.90;;;;;;2071799;28;20129;-71
2022/08/08 00:12:22;;;;;;;2.63;2.42;;;16.70;99.90;;;;;;2074102;28;20513;-71
2022/08/08 00:13:22;;;;;;;3.08;2.50;;;16.70;99.90;;;;;;2072621;28;20072;-71
2022/08/08 00:14:37;;;;;;;3.22;2.60;;;16.70;99.90;;;;;;2074173;28;20067;-72
2022/08/08 00:15:45;;;;;;;2.65;2.45;;;16.70;99.90;;;;;;2074990;28;20026;-72
2022/08/08 00:17:01;;;;;;;3.08;2.80;;;16.70;99.90;;;;;;2073529;28;20018;-71
2022/08/08 00:18:33;;;;;;;2.67;2.47;;;16.70;99.90;;;;;;2073979;28;20049;-71
2022/08/08 00:19:53;;;;;;;2.50;2.40;;;16.60;99.90;;;;;;2073782;28;20034;-71
2022/08/08 00:20:56;;;;;;;2.83;2.63;;;16.70;99.90;;;;;;2074139;28;20097;-71
2022/08/08 00:22:02;;;;;;;3.42;2.85;;;16.70;99.90;;;;;;2073071;28;20022;-71
2022/08/08 00:23:10;;;;;;;2.78;2.58;;;16.60;99.90;;;;;;2073673;28;20020;-71
2022/08/08 00:24:15;;;;;;;3.47;2.63;;;16.60;99.90;;;;;;2073750;28;20032;-71
2022/08/08 00:25:23;;;;;;;3.20;2.38;;;16.60;99.90;;;;;;2074936;28;20547;-71
2022/08/08 00:26:47;;;;;;;2.58;2.38;;;16.60;99.90;;;;;;2075232;28;20040;-71
2022/08/08 00:27:56;;;;;;;2.40;2.20;;;16.60;99.90;;;;;;2060439;28;20027;-71
2022/08/08 00:29:03;;;;;;;2.47;2.28;;;16.60;99.90;;;;;;2067232;28;20026;-71
2022/08/08 00:30:07;;;;;;;2.75;2.55;;;16.60;99.90;;;;;;2073406;28;20113;-71
2022/08/08 00:31:18;;;;;;;3.10;2.60;;;16.60;99.90;;;;;;2073300;28;20057;-71
2022/08/08 00:32:25;;;;;;;3.10;2.40;;;16.60;99.90;;;;;;2073757;28;20014;-71
2022/08/08 00:33:31;;;;;;;2.80;2.55;;;16.60;99.90;;;;;;2073158;28;20037;-71
2022/08/08 00:35:11;;;;;;;2.47;2.35;;;16.50;99.90;;;;;;2077863;28;20493;-71
2022/08/08 00:36:25;;;;;;;3.22;2.92;;;16.50;99.90;;;;;;2073173;28;20034;-72
2022/08/08 00:37:47;;;;;;;2.75;2.60;;;16.50;99.90;;;;;;2074902;28;20057;-71
2022/08/08 00:38:58;;;;;;;2.83;2.60;;;16.50;99.90;;;;;;2072789;28;20065;-71
2022/08/08 00:40:23;;;;;;;5.45;2.88;;;16.50;99.90;;;;;;2073437;28;20034;-71
2022/08/08 00:41:33;;;;;;;3.17;2.88;;;16.50;99.90;;;;;;2076297;28;20021;-71
2022/08/08 00:43:11;;;;;;;2.47;2.37;;;16.40;99.90;;;;;;2075613;28;20029;-71
2022/08/08 00:44:49;;;;;;;2.95;2.75;;;16.40;99.90;;;;;;2074034;28;20273;-71
2022/08/08 00:46:20;;;;;;;3.00;2.80;;;16.40;99.90;;;;;;2043689;28;20044;-71
2022/08/08 00:47:39;;;;;;;2.95;2.40;;;16.40;99.90;;;;;;2073959;28;20029;-71
2022/08/08 00:49:07;;;;;;;3.50;3.20;;;16.30;99.90;;;;;;2075322;28;20026;-71
2022/08/08 00:50:34;;;;;;;2.97;2.78;;;16.30;99.90;;;;;;2071764;28;20037;-71
2022/08/08 00:51:56;;;;;;;3.75;3.00;;;16.30;99.90;;;;;;2074321;28;20120;-71
2022/08/08 00:53:11;;;;;;;2.83;2.63;;;16.30;99.90;;;;;;2070601;28;20029;-71
2022/08/08 00:54:49;;;;;;;2.60;2.40;;;16.30;99.90;;;;;;2074221;28;20072;-71
2022/08/08 00:56:14;;;;;;;5.07;3.13;;;16.20;99.90;;;;;;2073593;28;20013;-71
2022/08/08 00:57:27;;;;;;;2.67;2.47;;;16.20;99.90;;;;;;2076218;28;20055;-71
2022/08/08 00:58:52;;;;;;;2.80;2.60;;;16.20;99.90;;;;;;2072348;28;20382;-71
2022/08/08 01:00:16;;;;;;;2.53;2.33;;;16.20;99.90;;;;;;2076773;28;20010;-71
2022/08/08 01:01:25;;;;;;;3.17;2.60;;;16.20;99.90;;;;;;2072262;28;20022;-71
2022/08/08 01:02:50;;;;;;;4.30;3.03;;;16.20;99.90;;;;;;2072660;28;20104;-71
2022/08/08 01:04:31;;;;;;;2.70;2.50;;;16.20;99.90;;;;;;2074494;28;20033;-71
2022/08/08 01:05:51;;;;;;;2.55;2.35;;;16.20;99.90;;;;;;2073360;28;20022;-71
2022/08/08 01:07:22;;;;;;;2.75;2.55;;;16.10;99.90;;;;;;2076187;28;20060;-72
2022/08/08 01:09:00;;;;;;;3.17;2.63;;;16.10;99.90;;;;;;2075612;28;20025;-71
2022/08/08 01:10:34;;;;;;;3.42;3.10;;;16.10;99.90;;;;;;2072379;28;20030;-71
2022/08/08 01:12:09;;;;;;;3.25;2.78;;;16.10;99.90;;;;;;2072487;28;20104;-71
2022/08/08 01:13:26;;;;;;;2.67;2.47;;;16.10;99.90;;;;;;2073602;28;20041;-71
2022/08/08 01:14:47;;;;;;;2.63;2.42;;;16.00;99.90;;;;;;2075615;28;20464;-71
2022/08/08 01:16:03;;;;;;;3.10;2.80;;;16.00;99.90;;;;;;2075251;28;20037;-71
2022/08/08 01:17:18;;;;;;;2.67;2.47;;;16.00;99.90;;;;;;2069984;28;20474;-71
2022/08/08 01:18:26;;;;;;;3.75;2.55;;;16.00;99.90;;;;;;2072976;28;20025;-71
2022/08/08 01:19:41;;;;;;;3.10;2.80;;;16.00;99.90;;;;;;2073541;28;20029;-71
2022/08/08 01:20:52;;;;;;;3.25;2.70;;;16.00;99.90;;;;;;2073417;28;20071;-71
2022/08/08 01:22:17;;;;;;;3.30;2.92;;;16.00;99.90;;;;;;2072420;28;20029;-71
2022/08/08 01:23:41;;;;;;;3.00;2.80;;;16.00;99.90;;;;;;2071496;28;20026;-71
2022/08/08 01:24:56;;;;;;;3.20;2.90;;;15.90;99.90;;;;;;2070837;28;20022;-71
2022/08/08 01:26:15;;;;;;;3.13;2.92;;;15.90;99.90;;;;;;2072395;28;20075;-71
2022/08/08 01:27:57;;;;;;;2.50;2.35;;;15.90;99.90;;;;;;2074175;28;20018;-71
2022/08/08 01:29:40;;;;;;;2.88;2.65;;;15.90;99.90;;;;;;2072740;28;20100;-71
2022/08/08 01:31:15;;;;;;;2.33;2.20;;;15.80;99.90;;;;;;2071776;28;20526;-71
2022/08/08 01:32:40;;;;;;;3.13;2.83;;;15.80;99.90;;;;;;2073973;28;20067;-71
2022/08/08 01:34:03;;;;;;;3.05;2.67;;;15.80;99.90;;;;;;2071029;28;20049;-71
2022/08/08 01:35:31;;;;;;;3.80;2.90;;;15.80;99.90;;;;;;2076026;28;20018;-71
2022/08/08 01:36:40;;;;;;;4.28;2.63;;;15.80;99.90;;;;;;2073745;28;20104;-71
2022/08/08 01:38:12;;;;;;;2.97;2.73;;;15.80;99.90;;;;;;2073270;28;20030;-71
2022/08/08 01:39:49;;;;;;;3.33;3.00;;;15.80;99.90;;;;;;2076482;28;20272;-71
2022/08/08 01:41:06;;;;;;;3.00;2.80;;;15.80;99.90;;;;;;2076914;28;20098;-71
2022/08/08 01:42:40;;;;;;;3.10;2.78;;;15.70;99.90;;;;;;2071166;28;20036;-71
2022/08/08 01:44:19;;;;;;;2.75;2.58;;;15.70;99.90;;;;;;2065291;28;20560;-71
2022/08/08 01:45:34;;;;;;;2.88;2.67;;;15.70;99.90;;;;;;2073748;28;20065;-71
2022/08/08 01:46:56;;;;;;;2.70;2.50;;;15.70;99.90;;;;;;2073058;28;20036;-71
2022/08/08 01:48:02;;;;;;;2.90;2.55;;;15.70;99.90;;;;;;2072608;28;20026;-71
2022/08/08 01:49:27;;;;;;;3.03;2.83;;;15.60;99.90;;;;;;2073750;28;20041;-71
2022/08/08 01:51:11;;;;;;;3.10;2.83;;;15.60;99.90;;;;;;2073660;28;20022;-71
2022/08/08 01:52:20;;;;;;;2.90;2.70;;;15.60;99.90;;;;;;2075745;28;20053;-71
2022/08/08 01:53:43;;;;;;;4.10;2.58;;;15.60;99.90;;;;;;2075653;28;20103;-71
2022/08/08 01:55:02;;;;;;;2.97;2.65;;;15.60;99.90;;;;;;2072498;28;20733;-71
2022/08/08 01:57:01;;;;;;;2.88;2.60;;;15.60;99.90;;;;;;2070234;28;20051;-71
2022/08/08 01:58:27;;;;;;;3.03;2.75;;;15.50;99.90;;;;;;2069421;28;20473;-71
2022/08/08 02:00:01;;;;;;;2.75;2.55;;;15.50;99.90;;;;;;2071875;28;20026;-71
2022/08/08 02:01:39;;;;;;;2.90;2.60;;;15.50;99.90;;;;;;2072155;28;20060;-71
2022/08/08 02:02:49;;;;;;;3.00;2.72;;;15.50;99.90;;;;;;2069856;28;20053;-71
2022/08/08 02:04:16;;;;;;;3.85;3.33;;;15.50;99.90;;;;;;2073096;28;20472;-71
2022/08/08 02:05:20;;;;;;;3.35;2.58;;;15.40;99.90;;;;;;2072726;28;20041;-71
2022/08/08 02:06:50;;;;;;;2.85;2.65;;;15.40;99.90;;;;;;2072307;28;20524;-71
2022/08/08 02:08:15;;;;;;;2.75;2.47;;;15.50;99.90;;;;;;2090152;28;20070;-71
2022/08/08 02:09:49;;;;;;;2.95;2.75;;;15.40;99.90;;;;;;2080329;28;20026;-71
2022/08/08 02:10:59;;;;;;;3.70;3.05;;;15.40;99.90;;;;;;2073663;28;20024;-71
2022/08/08 02:12:12;;;;;;;4.05;3.05;;;15.40;99.90;;;;;;2074339;28;20029;-71
2022/08/08 02:13:40;;;;;;;2.85;2.65;;;15.40;99.90;;;;;;2072642;28;20041;-71
2022/08/08 02:15:08;;;;;;;3.22;2.90;;;15.40;99.90;;;;;;2074737;28;20018;-71
2022/08/08 02:16:42;;;;;;;2.75;2.55;;;15.30;99.90;;;;;;2071412;28;20478;-71
2022/08/08 02:18:05;;;;;;;3.80;3.42;;;15.30;99.90;;;;;;2071657;28;20025;-71
2022/08/08 02:19:28;;;;;;;3.92;2.97;;;15.30;99.90;;;;;;2074775;28;20015;-71
2022/08/08 02:20:41;;;;;;;4.13;2.95;;;15.30;99.90;;;;;;2074465;28;20022;-71
2022/08/08 02:23:35;;;;;;;4.55;3.55;;;15.30;99.90;;;;;;2075492;28;20104;-71
2022/08/08 02:24:51;;;;;;;3.40;3.10;;;15.20;99.90;;;;;;2073071;28;20026;-71
2022/08/08 02:26:06;;;;;;;3.78;3.22;;;15.20;99.90;;;;;;2073792;28;20042;-71
2022/08/08 02:27:16;;;;;;;3.10;2.90;;;15.20;99.90;;;;;;2075549;28;20038;-71
2022/08/08 02:28:38;;;;;;;3.25;2.95;;;15.20;99.90;;;;;;2075108;28;20130;-71
2022/08/08 02:30:06;;;;;;;3.70;3.08;;;15.20;99.90;;;;;;2072261;28;20537;-71
2022/08/08 02:31:49;;;;;;;3.83;3.03;;;15.20;99.90;;;;;;2071441;28;20624;-71
2022/08/08 02:33:20;;;;;;;3.13;2.92;;;15.10;99.90;;;;;;2074620;28;20111;-71
2022/08/08 02:34:57;;;;;;;3.20;2.90;;;15.10;99.90;;;;;;2076977;28;20017;-71
2022/08/08 02:36:21;;;;;;;3.35;3.05;;;15.10;99.90;;;;;;2073202;28;20025;-71
2022/08/08 02:37:50;;;;;;;3.65;3.13;;;15.10;99.90;;;;;;2073992;28;20095;-71
2022/08/08 02:39:03;;;;;;;3.47;3.17;;;15.10;99.90;;;;;;2043544;28;20033;-71
2022/08/08 02:40:45;;;;;;;3.03;2.83;;;15.10;99.90;;;;;;2071677;28;20018;-71
2022/08/08 02:41:48;;;;;;;3.47;3.17;;;15.00;99.90;;;;;;2065844;28;20026;-71
2022/08/08 02:43:17;;;;;;;4.85;3.13;;;15.00;99.90;;;;;;2075620;28;20068;-71
2022/08/08 02:44:30;;;;;;;3.50;3.20;;;15.00;99.90;;;;;;2074238;28;20065;-71
2022/08/08 02:46:05;;;;;;;3.10;2.90;;;15.00;99.90;;;;;;2072842;28;20091;-71
2022/08/08 02:47:25;;;;;;;3.33;2.83;;;15.00;99.90;;;;;;2072184;28;20095;-71
2022/08/08 02:49:04;;;;;;;3.17;2.97;;;15.00;99.90;;;;;;2073725;28;20072;-71
2022/08/08 02:50:26;;;;;;;4.30;2.97;;;15.00;99.90;;;;;;2073279;28;20021;-71
2022/08/08 02:51:59;;;;;;;3.97;3.10;;;14.90;99.90;;;;;;2072496;28;20076;-71
2022/08/08 02:53:28;;;;;;;2.67;2.47;;;14.90;99.90;;;;;;2065235;28;20536;-71
2022/08/08 02:54:38;;;;;;;3.03;2.75;;;14.90;99.90;;;;;;2071441;28;20092;-71
2022/08/08 02:55:41;;;;;;;3.42;3.13;;;14.90;99.90;;;;;;2072571;28;20097;-71
2022/08/08 02:57:00;;;;;;;3.67;3.38;;;14.90;99.90;;;;;;2072809;28;20136;-71
2022/08/08 02:58:39;;;;;;;3.47;3.20;;;14.90;99.90;;;;;;2073629;28;20055;-71
2022/08/08 03:00:17;;;;;;;3.67;3.30;;;14.90;99.90;;;;;;2073291;28;20022;-71
2022/08/08 03:01:59;;;;;;;3.22;2.90;;;14.80;99.90;;;;;;2072705;28;20895;-71
2022/08/08 03:03:21;;;;;;;4.07;3.03;;;14.80;99.90;;;;;;2075043;28;20025;-71
2022/08/08 03:04:37;;;;;;;3.72;3.30;;;14.80;99.90;;;;;;2073062;28;20506;-71
2022/08/08 03:05:46;;;;;;;3.13;2.92;;;14.80;99.90;;;;;;2074742;28;20017;-71
2022/08/08 03:07:08;;;;;;;3.28;3.00;;;14.80;99.90;;;;;;2076476;28;20026;-71
2022/08/08 03:08:42;;;;;;;4.03;2.63;;;14.80;99.90;;;;;;2075238;28;20034;-72
2022/08/08 03:10:07;;;;;;;3.65;3.13;;;14.80;99.90;;;;;;2076225;28;20024;-72
2022/08/08 03:11:35;;;;;;;4.45;3.28;;;14.80;99.90;;;;;;2071904;28;20398;-71
2022/08/08 03:12:55;;;;;;;3.88;3.42;;;14.70;99.90;;;;;;2071970;28;20025;-71
2022/08/08 03:14:13;;;;;;;3.40;3.10;;;14.70;99.90;;;;;;2074734;28;20080;-71
2022/08/08 03:15:29;;;;;;;3.78;2.88;;;14.70;99.90;;;;;;2072791;28;20478;-71
2022/08/08 03:16:32;;;;;;;3.15;2.85;;;14.70;99.90;;;;;;2075055;28;20029;-71
2022/08/08 03:17:36;;;;;;;4.15;3.08;;;14.70;99.90;;;;;;2074711;28;20017;-72
2022/08/08 03:18:36;;;;;;;3.80;3.50;;;14.70;99.90;;;;;;2074959;28;20017;-72
2022/08/08 03:19:43;;;;;;;3.45;3.25;;;14.70;99.90;;;;;;2076548;28;20049;-71
2022/08/08 03:20:44;;;;;;;3.78;3.00;;;14.70;99.90;;;;;;2074706;28;20025;-71
2022/08/08 03:21:45;;;;;;;3.35;3.05;;;14.70;99.90;;;;;;2074105;28;20394;-71
2022/08/08 03:22:51;;;;;;;4.07;3.75;;;14.70;99.90;;;;;;2075853;28;20028;-71
2022/08/08 03:23:52;;;;;;;4.00;3.35;;;14.70;99.90;;;;;;2075295;28;20046;-71
2022/08/08 03:24:53;;;;;;;3.85;3.50;;;14.70;99.90;;;;;;2072548;28;20022;-71
2022/08/08 03:25:55;;;;;;;3.90;3.60;;;14.60;99.90;;;;;;2079044;28;20112;-71
2022/08/08 03:27:11;;;;;;;3.92;3.60;;;14.70;99.90;;;;;;2074858;28;20466;-71
2022/08/08 03:28:15;;;;;;;3.65;3.35;;;14.70;99.90;;;;;;2072224;28;20057;-71
2022/08/08 03:29:19;;;;;;;3.15;2.95;;;14.60;99.90;;;;;;2076379;28;20029;-71
2022/08/08 03:30:20;;;;;;;3.72;3.10;;;14.60;99.90;;;;;;2069953;28;20148;-71
2022/08/08 03:34:03;;;;;;;3.55;3.25;;;14.60;99.90;;;;;;2074924;28;20022;-71
2022/08/08 03:35:05;;;;;;;3.33;3.03;;;14.60;99.90;;;;;;2075297;28;20018;-71
2022/08/08 03:36:06;;;;;;;4.57;3.67;;;14.60;99.90;;;;;;2074009;28;20029;-71
2022/08/08 03:37:16;;;;;;;3.70;3.35;;;14.60;99.90;;;;;;2075554;28;20033;-71
2022/08/08 03:38:21;;;;;;;3.33;3.03;;;14.60;99.90;;;;;;2074660;28;20026;-71
2022/08/08 03:39:22;;;;;;;3.90;3.38;;;14.60;99.90;;;;;;2073783;28;20022;-71
2022/08/08 03:40:23;;;;;;;4.07;3.67;;;14.60;99.90;;;;;;2075996;28;20056;-71
2022/08/08 03:41:33;;;;;;;3.85;3.38;;;14.60;99.90;;;;;;2074005;28;20473;-71
2022/08/08 03:42:37;;;;;;;3.67;3.38;;;14.60;99.90;;;;;;2074423;28;20030;-71
2022/08/08 03:43:37;;;;;;;4.57;3.38;;;14.50;99.90;;;;;;2073837;28;20014;-71
2022/08/08 03:44:38;;;;;;;3.28;3.08;;;14.50;99.90;;;;;;2075436;28;20028;-71
2022/08/08 03:45:40;;;;;;;4.65;3.53;;;14.50;99.90;;;;;;2074246;28;20025;-71
2022/08/08 03:46:48;;;;;;;3.33;3.13;;;14.50;99.90;;;;;;2074531;28;20040;-71
2022/08/08 03:47:57;;;;;;;4.07;3.33;;;14.50;99.90;;;;;;2071422;28;20026;-71
2022/08/08 03:48:59;;;;;;;3.95;3.53;;;14.50;99.90;;;;;;2068392;28;20134;-71
2022/08/08 03:50:00;;;;;;;3.75;3.30;;;14.50;99.90;;;;;;2076559;28;20048;-71
2022/08/08 03:51:01;;;;;;;3.30;3.10;;;14.50;99.90;;;;;;2074196;28;20105;-71
2022/08/08 03:52:01;;;;;;;3.08;2.78;;;14.50;99.90;;;;;;2075968;28;20504;-71
2022/08/08 03:53:12;;;;;;;3.97;3.67;;;14.50;99.90;;;;;;2073104;28;20049;-71
2022/08/08 03:54:14;;;;;;;3.35;3.13;;;14.50;99.90;;;;;;2071863;28;20080;-71
2022/08/08 03:55:17;;;;;;;3.47;3.28;;;14.50;99.90;;;;;;2073994;28;20427;-71
2022/08/08 03:56:21;;;;;;;3.03;2.83;;;14.50;99.90;;;;;;2075222;28;20113;-71
2022/08/08 03:57:22;;;;;;;3.85;3.35;;;14.50;99.90;;;;;;2073284;28;20076;-71
2022/08/08 03:58:24;;;;;;;3.17;2.95;;;14.50;99.90;;;;;;2076819;28;20021;-71
2022/08/08 03:59:29;;;;;;;3.50;3.20;;;14.40;99.90;;;;;;2074853;28;20044;-71
2022/08/08 04:00:30;;;;;;;5.22;3.60;;;14.40;99.90;;;;;;2070589;28;20405;-71
2022/08/08 04:01:38;;;;;;;3.53;3.22;;;14.40;99.90;;;;;;2074563;28;20108;-71
2022/08/08 04:02:39;;;;;;;3.45;3.20;;;14.40;99.90;;;;;;2074125;28;20025;-71
2022/08/08 04:03:42;;;;;;;4.60;3.85;;;14.40;99.90;;;;;;2075200;28;20017;-71
2022/08/08 04:04:43;;;;;;;3.90;3.60;;;14.40;99.90;;;;;;2068827;28;20023;-71
2022/08/08 04:05:45;;;;;;;3.90;3.40;;;14.40;99.90;;;;;;2068926;28;20042;-71
2022/08/08 04:06:57;;;;;;;3.72;3.42;;;14.40;99.90;;;;;;2078541;28;20082;-71
2022/08/08 04:07:59;;;;;;;3.72;3.42;;;14.40;99.90;;;;;;2074685;28;20104;-71
2022/08/08 04:09:03;;;;;;;3.53;3.22;;;14.40;99.90;;;;;;2074327;28;20029;-71
2022/08/08 04:10:07;;;;;;;3.75;3.45;;;14.40;99.90;;;;;;2074551;28;20030;-71
2022/08/08 04:11:08;;;;;;;4.00;2.92;;;14.40;99.90;;;;;;2075861;28;20208;-71
2022/08/08 04:12:09;;;;;;;3.95;3.50;;;14.40;99.90;;;;;;2073316;28;20034;-71
2022/08/08 04:13:09;;;;;;;3.53;3.20;;;14.40;99.90;;;;;;2073016;28;20045;-71
2022/08/08 04:14:10;;;;;;;3.55;3.25;;;14.40;99.90;;;;;;2075342;28;20025;-71
2022/08/08 04:15:11;;;;;;;3.58;3.28;;;14.40;99.90;;;;;;2074590;28;20064;-71
2022/08/08 04:16:11;;;;;;;3.85;3.55;;;14.40;99.90;;;;;;2072921;28;20140;-71
2022/08/08 04:17:12;;;;;;;4.72;3.50;;;14.40;99.90;;;;;;2074997;28;20389;-72
2022/08/08 04:18:12;;;;;;;3.60;3.33;;;14.40;99.90;;;;;;2075912;28;20022;-71
2022/08/08 04:19:13;;;;;;;3.85;3.40;;;14.30;99.90;;;;;;2073544;28;20124;-71
2022/08/08 04:20:13;;;;;;;3.83;3.53;;;14.30;99.90;;;;;;2074122;28;20382;-71
2022/08/08 04:21:15;;;;;;;3.60;3.30;;;14.40;99.90;;;;;;2074616;28;20022;-71
2022/08/08 04:22:15;;;;;;;5.68;3.90;;;14.30;99.90;;;;;;2077683;28;20028;-71
2022/08/08 04:23:16;;;;;;;3.65;3.40;;;14.30;99.90;;;;;;2076523;28;20109;-71
2022/08/08 04:24:17;;;;;;;5.28;3.47;;;14.40;99.90;;;;;;2073685;28;20473;-71
2022/08/08 04:25:17;;;;;;;4.00;3.60;;;14.30;99.90;;;;;;2073433;28;20022;-71
2022/08/08 04:26:18;;;;;;;6.18;4.05;;;14.30;99.90;;;;;;2075046;28;20382;-71
2022/08/08 04:27:19;;;;;;;3.95;3.60;;;14.30;99.90;;;;;;2073664;28;20030;-71
2022/08/08 04:28:19;;;;;;;3.75;3.30;;;14.30;99.90;;;;;;2071129;28;20101;-71
2022/08/08 04:29:20;;;;;;;3.63;3.33;;;14.30;99.90;;;;;;2076903;28;20014;-71
2022/08/08 04:30:20;;;;;;;5.65;3.88;;;14.30;99.90;;;;;;2075996;28;20022;-71
2022/08/08 04:31:21;;;;;;;3.80;3.50;;;14.30;99.90;;;;;;2075644;28;20025;-71
2022/08/08 04:32:22;;;;;;;3.92;3.38;;;14.30;99.90;;;;;;2072525;28;20378;-71
2022/08/08 04:33:22;;;;;;;4.40;4.03;;;14.30;99.90;;;;;;2072097;28;20026;-71
2022/08/08 04:34:23;;;;;;;3.78;3.35;;;14.30;99.90;;;;;;2076939;28;20028;-71
2022/08/08 04:35:23;;;;;;;3.83;3.53;;;14.30;99.90;;;;;;2074571;28;20072;-71
2022/08/08 04:36:25;;;;;;;5.85;3.53;;;14.30;99.90;;;;;;2071181;28;20030;-71
2022/08/08 04:37:26;;;;;;;4.30;3.97;;;14.30;99.90;;;;;;2074668;28;20052;-71
2022/08/08 04:38:26;;;;;;;3.97;3.67;;;14.40;99.90;;;;;;2073583;28;20018;-71
2022/08/08 04:39:27;;;;;;;4.18;3.72;;;14.40;99.90;;;;;;2074546;28;20084;-71
2022/08/08 04:40:28;;;;;;;4.00;3.60;;;14.40;99.90;;;;;;2072960;28;20053;-71
2022/08/08 04:41:28;;;;;;;5.32;3.95;;;14.40;99.90;;;;;;2071924;28;20073;-71
2022/08/08 04:42:32;;;;;;;4.40;4.00;;;14.40;99.90;;;;;;2075128;28;20478;-71
2022/08/08 04:43:33;;;;;;;5.43;3.65;;;14.40;99.90;;;;;;2071550;28;20374;-71
2022/08/08 04:44:33;;;;;;;4.30;3.75;;;14.40;99.90;;;;;;2072682;28;20026;-71
2022/08/08 04:45:34;;;;;;;5.40;3.95;;;14.40;99.90;;;;;;2075166;28;20025;-71
2022/08/08 04:46:35;;;;;;;3.85;3.55;;;14.40;99.90;;;;;;2075182;28;20097;-71
2022/08/08 04:47:35;;;;;;;4.07;3.75;;;14.40;99.90;;;;;;2074090;28;20482;-71
2022/08/08 04:48:36;;;;;;;4.45;4.05;;;14.40;99.90;;;;;;2074711;28;20105;-71
2022/08/08 04:49:37;;;;;;;4.35;3.95;;;14.40;99.90;;;;;;2073685;28;20028;-71
2022/08/08 04:50:37;;;;;;;3.65;3.35;;;14.40;99.90;;;;;;2073083;28;20401;-71
2022/08/08 04:51:38;;;;;;;4.28;3.88;;;14.40;99.90;;;;;;2075140;28;20042;-71
2022/08/08 04:52:38;;;;;;;4.45;4.05;;;14.40;99.90;;;;;;2075478;28;20529;-71
2022/08/08 04:53:39;;;;;;;3.97;3.67;;;14.40;99.90;;;;;;2074642;28;20017;-71
2022/08/08 04:54:39;;;;;;;6.03;4.25;;;14.40;99.90;;;;;;2075284;28;20372;-71
2022/08/08 04:55:40;;;;;;;4.38;3.97;;;14.50;99.90;;;;;;2074214;28;20108;-71
2022/08/08 04:56:40;;;;;;;4.43;4.00;;;14.40;99.90;;;;;;2074377;28;20017;-71
2022/08/08 04:57:41;;;;;;;4.68;3.72;;;14.50;99.90;;;;;;2073832;28;20090;-71
2022/08/08 04:58:42;;;;;;;5.28;4.25;;;14.50;99.90;;;;;;2072645;28;20021;-71
2022/08/08 04:59:43;;;;;;;5.30;4.38;;;14.50;99.90;;;;;;2072900;28;20164;-71
2022/08/08 05:00:44;;;;;;;5.10;4.60;;;14.50;99.90;;;;;;2075452;28;20478;-71
2022/08/08 05:01:44;;;;;;;4.68;4.30;;;14.50;99.90;;;;;;2075086;28;20160;-71
2022/08/08 05:02:45;;;;;;;6.88;4.53;;;14.50;99.90;;;;;;2073035;28;20045;-71
2022/08/08 05:03:45;;;;;;;4.68;4.00;;;14.60;99.90;;;;;;2075732;28;20501;-71
2022/08/08 05:04:46;;;;;;;4.88;4.47;;;14.60;99.90;;;;;;2076397;28;20052;-71
2022/08/08 05:05:46;;;;;;;4.47;4.13;;;14.60;99.90;;;;;;2073853;28;20454;-71
2022/08/08 05:06:47;;;;;;;4.80;4.30;;;14.60;99.90;;;;;;2073129;28;20029;-71
2022/08/08 05:07:48;;;;;;;7.03;4.47;;;14.70;99.90;;;;;;2072120;28;20048;-71
2022/08/08 05:08:50;;;;;;;4.50;4.10;;;14.70;99.90;;;;;;2071779;28;20068;-71
2022/08/08 05:09:50;;;;;;;3.95;3.55;;;14.70;99.90;;;;;;2075796;28;20104;-71
2022/08/08 05:10:52;;;;;;;6.10;4.28;;;14.80;99.90;;;;;;2072630;28;20019;-71
2022/08/08 05:11:52;;;;;;;5.35;4.93;;;14.80;99.90;;;;;;2074285;28;20034;-71
2022/08/08 05:12:53;;;;;;;4.35;4.05;;;14.80;99.90;;;;;;2073221;28;20493;-71
2022/08/08 05:13:53;;;;;;;5.80;4.78;;;14.90;99.90;;;;;;2073395;28;20049;-71
2022/08/08 05:14:54;;;;;;;6.05;4.68;;;14.90;99.90;;;;;;2073165;28;20362;-71
2022/08/08 05:15:54;;;;;;;4.55;4.15;;;14.90;99.90;;;;;;2072842;28;20026;-71
2022/08/08 05:16:55;;;;;;;4.55;4.15;;;15.00;99.90;;;;;;2071791;28;20021;-71
2022/08/08 05:17:55;;;;;;;4.47;4.18;;;15.10;99.90;;;;;;2075711;28;20491;-71
2022/08/08 05:18:56;;;;;;;6.15;5.18;;;15.10;99.90;;;;;;2075606;28;20373;-71
2022/08/08 05:19:57;;;;;;;5.32;4.82;;;15.10;99.90;;;;;;2074539;28;20018;-71
2022/08/08 05:20:58;;;;;;;6.28;5.20;;;15.20;99.90;;;;;;2075595;28;20076;-71
2022/08/08 05:21:59;;;;;;;8.48;5.22;;;15.30;99.90;;;;;;2073067;28;20029;-71
2022/08/08 05:23:00;;;;;;;5.97;5.47;;;15.30;99.90;;;;;;2070524;28;20033;-71
2022/08/08 05:24:00;;;;;;;7.10;4.95;;;15.40;99.90;;;;;;2072740;28;20021;-71
2022/08/08 05:25:01;;;;;;;6.68;5.97;;;15.40;99.90;;;;;;2070858;28;20537;-71
2022/08/08 05:26:02;;;;;;;9.10;6.38;;;15.50;99.90;;;;;;2074193;28;20536;-71
2022/08/08 05:27:03;;;;;;;6.88;5.45;;;15.60;99.90;;;;;;2076854;28;20129;-71
2022/08/08 05:28:04;;;;;;;5.72;5.28;;;15.60;99.90;;;;;;2075509;28;20025;-71
2022/08/08 05:29:07;;;;;;;5.47;5.03;;;15.70;99.90;;;;;;2074837;28;20079;-71
2022/08/08 05:30:09;;;;;;;6.95;6.30;;;15.80;99.90;;;;;;2073124;28;20473;-71
2022/08/08 05:31:11;;;;;;;6.13;5.53;;;15.90;99.90;;;;;;2074186;28;20611;-71
2022/08/08 05:32:12;;;;;;;8.25;6.55;;;16.00;99.90;;;;;;2072688;28;20037;-71
2022/08/08 05:33:13;;;;;;;7.93;6.93;;;16.10;99.90;;;;;;2072507;28;20030;-71
2022/08/08 05:34:29;;;;;;;6.65;6.03;;;16.20;99.90;;;;;;2072708;28;20026;-71
2022/08/08 05:35:33;;;;;;;8.45;6.50;;;16.30;99.90;;;;;;2076518;28;20075;-71
2022/08/08 05:36:36;;;;;;;10.50;7.05;;;16.40;99.90;;;;;;2074380;28;20026;-71
2022/08/08 05:37:40;;;;;;;9.48;7.15;;;16.50;99.90;;;;;;2074188;28;20022;-71
2022/08/08 05:38:46;;;;;;;7.32;6.72;;;16.60;99.90;;;;;;2072878;28;20022;-71
2022/08/08 05:39:50;;;;;;;7.65;6.82;;;16.70;99.90;;;;;;2074535;28;20105;-71
2022/08/08 05:40:52;;;;;;;7.55;6.85;;;16.80;99.90;;;;;;2073644;28;20034;-71
2022/08/08 05:41:52;;;;;;;9.60;7.93;;;16.90;99.90;;;;;;2072809;28;20044;-71
2022/08/08 05:43:00;;;;;;;8.63;6.97;;;17.00;99.90;;;;;;2072165;28;20025;-71
2022/08/08 05:44:29;;;;;;;7.28;6.47;;;17.10;99.90;;;;;;2073322;28;20053;-71
2022/08/08 05:45:36;;;;;;;7.68;6.55;;;17.20;99.90;;;;;;2067399;28;20034;-71
2022/08/08 05:46:40;;;;;;;8.80;7.50;;;17.30;99.90;;;;;;2072320;28;20033;-71
2022/08/08 05:47:41;;;;;;;8.70;7.80;;;17.40;99.90;;;;;;2072908;28;20037;-71
2022/08/08 05:48:42;;;;;;;11.50;7.05;;;17.50;99.90;;;;;;2073962;28;20022;-71
2022/08/08 05:49:46;;;;;;;8.00;7.20;;;17.60;99.90;;;;;;2073003;28;20463;-71
2022/08/08 05:50:49;;;;;;;9.60;7.03;;;17.70;99.90;;;;;;2073670;28;20392;-71
2022/08/08 05:51:49;;;;;;;10.60;6.25;;;17.80;99.90;;;;;;2074325;28;20030;-71
2022/08/08 05:52:50;;;;;;;7.03;6.38;;;17.90;99.90;;;;;;2073104;28;20014;-71
2022/08/08 05:53:54;;;;;;;7.50;6.57;;;18.00;99.90;;;;;;2076602;28;20017;-71
2022/08/08 05:54:55;;;;;;;7.60;6.90;;;18.10;99.90;;;;;;2072586;28;20018;-71
2022/08/08 05:55:58;;;;;;;7.78;6.72;;;18.20;99.90;;;;;;2073468;28;20045;-71
2022/08/08 05:56:59;;;;;;;8.60;6.88;;;18.20;99.90;;;;;;2073962;28;20088;-71
2022/08/08 05:58:02;;;;;;;8.65;7.68;;;18.40;99.90;;;;;;2073353;28;20013;-71
2022/08/08 05:59:04;;;;;;;11.07;7.93;;;18.40;99.90;;;;;;2073804;28;20064;-71
2022/08/08 06:00:08;;;;;;;6.70;6.10;;;18.50;99.90;;;;;;2074074;28;20017;-71
2022/08/08 06:01:11;;;;;;;9.13;7.63;;;18.50;99.90;;;;;;2075080;28;20029;-71
2022/08/08 06:03:55;;;;;;;10.07;7.88;;;18.70;99.90;;;;;;2072493;28;20034;-71
2022/08/08 06:05:01;;;;;;;7.43;6.82;;;18.80;99.90;;;;;;2072548;28;20021;-71
2022/08/08 06:06:05;;;;;;;9.48;6.78;;;18.80;99.90;;;;;;2073891;28;20533;-71
2022/08/08 06:07:08;;;;;;;8.43;7.43;;;18.90;99.90;;;;;;2071813;28;20030;-71
2022/08/08 06:08:12;;;;;;;8.77;7.68;;;19.00;99.90;;;;;;2074197;28;20032;-71
2022/08/08 06:09:15;;;;;;;11.02;7.57;;;19.10;99.90;;;;;;2074006;28;20014;-71
2022/08/08 06:10:16;;;;;;;8.52;7.22;;;19.10;99.90;;;;;;2075517;28;20030;-71
2022/08/08 06:11:18;;;;;;;7.15;6.43;;;19.20;99.90;;;;;;2072498;28;20997;-71
2022/08/08 06:12:20;;;;;;;8.70;7.20;;;19.20;99.90;;;;;;2073592;28;20080;-71
2022/08/08 06:13:20;;;;;;;7.93;7.00;;;19.30;99.90;;;;;;2074324;28;20026;-71
2022/08/08 06:14:22;;;;;;;7.30;6.60;;;19.40;99.90;;;;;;2074081;28;20022;-71
2022/08/08 06:15:23;;;;;;;7.53;6.78;;;19.40;99.90;;;;;;2073518;28;20029;-71
2022/08/08 06:16:24;;;;;;;8.23;6.88;;;19.50;99.90;;;;;;2073721;28;20044;-71